Latest Weather Observations for Adelaide Airport

IDS60801

Issued at 10:21 am CDT Saturday 10 December 2022 (issued every 10 minutes, with the page automatically refreshed every 10 minutes)

About weather observations | Map of weather stations | Latest weather observations for SA | Other Formats
Station Details ID: 023034 Name: ADELAIDE AIRPORT Lat: -34.95 Lon: 138.52 Height: 2.0 m
Data from the previous 72 hours. | See also: Recent months at Adelaide Airport
Date/Time
CDT
Temp
°C
App
Temp
°C
Dew
Point
°C
Rel
Hum
%
Delta-T
°C
Wind Press
QNH
hPa
Press
MSL
hPa
Rain since
9am
mm
Dir  Spd
km/h
Gust
km/h
Spd
kts
Gust
kts
10/10:00am 28.1 22.4 6.8 26 11.3 NNE 26 32 14 17 1009.4 1009.4 0.0
10/09:30am 27.1 21.4 6.5 27 10.8 NNE 26 32 14 17 1010.2 1010.2 0.0
10/09:00am 26.0 19.8 6.1 28 10.3 NNE 28 35 15 19 1010.5 1010.5 0.0
10/08:30am 24.9 19.3 7.1 32 9.3 NE 26 32 14 17 1010.4 1010.4 0.0
10/08:00am 23.1 18.8 6.8 35 8.4 NE 19 22 10 12 1010.7 1010.7 0.0
10/07:30am 21.8 17.4 6.5 37 7.8 NE 19 30 10 16 1010.7 1010.7 0.0
10/07:00am 21.6 15.6 5.1 34 8.2 NE 26 30 14 16 1010.3 1010.3 0.0
10/06:30am 21.3 16.0 5.2 35 8.0 NE 22 28 12 15 1010.3 1010.3 0.0
10/06:00am 20.7 15.3 4.7 35 7.8 NE 22 28 12 15 1010.3 1010.3 0.0
10/05:30am 20.1 14.3 4.6 36 7.5 NE 24 30 13 16 1010.3 1010.3 0.0
10/05:00am 20.0 14.6 4.5 36 7.5 NE 22 28 12 15 1010.4 1010.4 0.0
10/04:30am 19.5 14.5 4.8 38 7.1 NE 20 28 11 15 1010.4 1010.4 0.0
10/04:00am 19.6 14.2 4.5 37 7.3 NE 22 26 12 14 1010.3 1010.3 0.0
10/03:30am 20.2 14.0 4.3 35 7.7 NNE 26 32 14 17 1010.2 1010.2 0.0
10/03:00am 20.3 14.5 4.4 35 7.7 NNE 24 32 13 17 1010.3 1010.3 0.0
10/02:30am 20.4 15.3 4.0 34 7.9 NE 20 26 11 14 1010.5 1010.5 0.0
10/02:00am 21.0 15.9 4.1 33 8.2 NE 20 28 11 15 1010.8 1010.8 0.0
10/01:30am 21.3 16.3 4.4 33 8.2 NE 20 30 11 16 1011.0 1011.0 0.0
10/01:00am 20.7 16.3 4.7 35 7.8 ENE 17 24 9 13 1011.2 1011.2 0.0
10/12:30am 20.7 15.8 4.3 34 7.9 ENE 19 24 10 13 1011.6 1011.6 0.0
10/12:00am 21.2 15.4 4.3 33 8.2 ENE 24 33 13 18 1011.8 1011.8 0.0
 
Date/Time
CDT
Temp
°C
App
Temp
°C
Dew
Point
°C
Rel
Hum
%
Delta-T
°C
Wind Press
QNH
hPa
Press
MSL
hPa
Rain since
9am
mm
Dir  Spd
km/h
Gust
km/h
Spd
kts
Gust
kts
09/11:30pm 19.6 16.0 4.9 38 7.1 E 13 15 7 8 1012.1 1012.1 0.0
09/11:00pm 20.7 16.7 5.1 36 7.7 E 15 20 8 11 1012.2 1012.2 0.0
09/10:30pm 21.8 16.8 4.8 33 8.4 ENE 20 28 11 15 1012.2 1012.2 0.0
09/10:00pm 21.0 18.0 6.2 38 7.4 ENE 11 17 6 9 1012.3 1012.3 0.0
09/09:30pm 21.2 18.0 6.7 39 7.4 ENE 13 17 7 9 1012.1 1012.1 0.0
09/09:00pm 23.1 18.8 7.2 36 8.3 ENE 19 24 10 13 1011.9 1011.9 0.0
09/08:30pm 23.9 19.5 7.5 35 8.6 ENE 20 28 11 15 1011.9 1011.9 0.0
09/08:00pm 21.9 21.4 10.7 49 6.2 SSE 4 7 2 4 1011.9 1011.9 0.0
09/07:30pm 23.1 21.1 8.8 40 7.6 SW 9 15 5 8 1011.6 1011.6 0.0
09/07:00pm 24.1 21.2 8.1 36 8.5 SSW 13 17 7 9 1011.6 1011.6 0.0
09/06:30pm 23.6 19.9 6.4 33 8.8 SW 15 19 8 10 1011.7 1011.7 0.0
09/06:00pm 23.7 20.4 9.7 41 7.6 SW 17 20 9 11 1011.7 1011.7 0.0
09/05:30pm 23.4 20.2 9.8 42 7.4 SSW 17 22 9 12 1011.8 1011.8 0.0
09/05:00pm 23.6 19.8 9.9 42 7.5 SW 20 24 11 13 1012.2 1012.2 0.0
09/04:30pm 22.9 19.2 11.6 49 6.3 SW 22 26 12 14 1012.6 1012.6 0.0
09/04:00pm 24.1 21.5 9.3 39 8.0 NE 13 20 7 11 1012.7 1012.7 0.0
09/03:30pm 24.7 22.2 6.4 31 9.4 NNW 9 19 5 10 1013.1 1013.1 0.0
09/03:00pm 24.7 21.8 6.4 31 9.4 ENE 11 17 6 9 1013.5 1013.5 0.0
09/02:30pm 24.3 21.3 6.1 31 9.3 NNE 11 17 6 9 1013.9 1013.9 0.0
09/02:00pm 23.9 20.9 6.2 32 9.1 ENE 11 22 6 12 1014.2 1014.2 0.0
09/01:30pm 23.0 19.5 7.1 36 8.2 ENE 15 20 8 11 1014.8 1014.8 0.0
09/01:00pm 22.1 17.8 7.1 38 7.7 ENE 19 30 10 16 1015.1 1015.1 0.0
09/12:30pm 21.6 17.0 6.7 38 7.6 ENE 20 35 11 19 1015.5 1015.5 0.0
09/12:00pm 20.2 16.1 6.2 40 7.0 NE 17 26 9 14 1016.0 1016.0 0.0
09/11:30am 19.4 14.6 5.5 40 6.8 NE 20 32 11 17 1016.0 1016.0 0.0
09/11:00am 19.3 14.7 5.7 41 6.7 NE 19 26 10 14 1016.2 1016.2 0.0
09/10:30am 18.0 13.6 4.6 41 6.4 NE 17 22 9 12 1016.4 1016.4 0.0
09/10:00am 18.3 13.5 5.8 44 6.1 NE 20 26 11 14 1016.5 1016.5 0.0
09/09:30am 16.5 11.7 4.5 45 5.6 NE 19 26 10 14 1017.0 1017.0 0.0
09/09:00am 15.7 10.3 4.4 47 5.3 ENE 22 30 12 16 1017.3 1017.3 0.0
09/08:30am 15.3 10.3 4.7 49 4.9 NE 20 26 11 14 1017.7 1017.7 0.0
09/08:00am 14.7 10.2 4.1 49 4.9 NE 17 20 9 11 1017.8 1017.8 0.0
09/07:30am 14.4 11.5 4.7 52 4.5 E 9 13 5 7 1017.3 1017.3 0.0
09/07:00am 14.4 10.3 4.4 51 4.6 ENE 15 22 8 12 1016.7 1016.7 0.0
09/06:30am 14.3 9.8 4.3 51 4.6 NE 17 19 9 10 1016.0 1016.0 0.0
09/06:00am 13.6 11.7 4.7 55 4.1 SE 4 7 2 4 1015.5 1015.5 0.0
09/05:30am 13.6 12.4 4.7 55 4.1 CALM 0 0 0 0 1015.5 1015.5 0.0
09/05:00am 13.7 12.6 5.1 56 4.0 CALM 0 7 0 4 1015.6 1015.6 0.0
09/04:30am 13.6 10.8 5.0 56 4.0 E 9 11 5 6 1014.5 1014.5 0.0
09/04:00am 13.5 10.1 5.9 60 3.6 ENE 13 17 7 9 1014.6 1014.6 0.0
09/03:30am 14.0 11.4 5.9 58 3.8 NE 9 13 5 7 1015.2 1015.2 0.0
09/03:00am 13.2 11.9 6.1 62 3.4 WNW 2 6 1 3 1015.5 1015.5 0.0
09/02:30am 13.3 12.4 5.9 61 3.5 CALM 0 0 0 0 1015.9 1015.9 0.0
09/02:00am 13.4 12.4 5.6 59 3.7 CALM 0 4 0 2 1015.8 1015.8 0.0
09/01:30am 13.4 11.1 5.8 60 3.6 ESE 7 9 4 5 1016.2 1016.2 0.0
09/01:00am 13.8 10.4 5.9 59 3.7 ESE 13 13 7 7 1017.0 1017.0 0.0
09/12:30am 13.2 9.0 5.9 61 3.4 ESE 17 20 9 11 1017.4 1017.4 0.0
09/12:00am 13.3 9.6 6.2 62 3.4 SE 15 24 8 13 1017.6 1017.6 0.0
 
Date/Time
CDT
Temp
°C
App
Temp
°C
Dew
Point
°C
Rel
Hum
%
Delta-T
°C
Wind Press
QNH
hPa
Press
MSL
hPa
Rain since
9am
mm
Dir  Spd
km/h
Gust
km/h
Spd
kts
Gust
kts
08/11:30pm 13.0 8.9 6.4 64 3.1 SE 17 26 9 14 1017.7 1017.7 0.0
08/11:00pm 13.0 7.9 6.1 63 3.3 SSE 22 32 12 17 1018.3 1018.3 0.0
08/10:30pm 13.4 8.8 6.3 62 3.4 SSE 20 30 11 16 1018.9 1018.9 0.0
08/10:00pm 13.8 9.3 6.2 60 3.6 SSE 19 28 10 15 1019.0 1019.0 0.0
08/09:30pm 14.1 9.4 6.0 58 3.8 SSE 20 32 11 17 1018.8 1018.8 0.0
08/09:00pm 14.4 9.8 5.7 56 4.1 SE 19 30 10 16 1018.6 1018.6 0.0
08/08:30pm 14.9 9.4 6.0 55 4.3 SE 24 30 13 16 1018.2 1018.2 0.0
08/08:00pm 15.5 10.3 5.7 52 4.7 SE 22 30 12 16 1018.2 1018.2 0.0
08/07:30pm 16.1 11.4 6.0 51 4.9 SSE 20 32 11 17 1017.4 1017.4 0.0
08/07:00pm 16.6 11.1 6.1 50 5.1 SE 24 33 13 18 1016.9 1016.9 0.0
08/06:30pm 18.0 11.6 6.8 48 5.6 SE 30 39 16 21 1016.2 1016.2 0.0
08/06:00pm 18.1 12.7 6.3 46 5.8 SE 24 35 13 19 1016.2 1016.2 0.0
08/05:30pm 19.1 13.1 7.2 46 6.0 SE 28 35 15 19 1015.8 1015.8 0.0
08/05:00pm 19.6 13.9 6.7 43 6.5 SE 26 33 14 18 1016.3 1016.3 0.0
08/04:30pm 19.2 14.2 8.2 49 5.7 S 24 35 13 19 1016.5 1016.5 0.0
08/04:00pm 18.1 13.0 7.5 50 5.4 S 24 37 13 20 1017.0 1017.0 0.0
08/03:36pm 18.6 13.2 8.0 50 5.4 S 26 48 14 26 1017.2 1017.2 0.0
08/03:30pm 19.3 12.9 9.2 52 5.3 SSW 33 48 18 26 1017.2 1017.2 0.0
08/03:00pm 18.6 11.9 8.3 51 5.3 SW 33 46 18 25 1017.9 1017.9 0.0
08/02:30pm 18.5 11.5 7.0 47 5.8 SW 33 41 18 22 1018.5 1018.5 0.0
08/02:00pm 18.9 15.5 7.7 48 5.7 S 15 33 8 18 1018.5 1018.5 0.0
08/01:30pm 18.6 11.9 7.4 48 5.7 SW 32 39 17 21 1017.9 1017.9 0.0
08/01:00pm 17.8 10.7 5.7 45 5.9 SW 32 39 17 21 1018.7 1018.7 0.0
08/12:30pm 18.1 13.0 6.0 45 5.9 SSW 22 32 12 17 1018.7 1018.7 0.0
08/12:00pm 17.8 13.0 4.4 41 6.3 S 19 30 10 16 1019.1 1019.1 0.0
08/11:30am 16.9 12.3 5.8 48 5.4 S 19 28 10 15 1019.2 1019.2 0.0
08/11:00am 17.1 12.4 6.0 48 5.4 S 20 30 11 16 1019.2 1019.2 0.0
08/10:30am 16.1 11.2 6.8 54 4.6 SW 22 30 12 16 1019.4 1019.4 0.0
08/10:00am 15.6 10.9 6.1 53 4.6 SW 20 28 11 15 1019.6 1019.6 0.0
08/09:30am 16.0 11.4 5.6 50 5.0 SSW 19 24 10 13 1019.6 1019.6 0.0
08/09:00am 15.4 11.0 4.8 49 5.0 S 17 28 9 15 1019.6 1019.6 0.0
08/08:30am 15.2 11.1 4.3 48 5.0 S 15 22 8 12 1019.5 1019.5 0.0
08/08:00am 14.9 10.8 4.6 50 4.8 SE 15 22 8 12 1019.0 1019.0 0.0
08/07:30am 14.2 10.7 5.3 55 4.2 SSE 13 17 7 9 1018.8 1018.8 0.0
08/07:00am 12.7 9.1 5.1 60 3.5 SSE 13 15 7 8 1018.5 1018.5 0.0
08/06:30am 12.2 9.0 5.1 62 3.3 SE 11 13 6 7 1018.3 1018.3 0.0
08/06:00am 11.1 8.2 4.8 65 2.8 ESE 9 11 5 6 1017.9 1017.9 0.0
08/05:30am 11.0 8.2 5.1 67 2.7 E 9 11 5 6 1017.5 1017.5 0.0
08/05:00am 11.2 8.5 5.5 68 2.6 ESE 9 9 5 5 1017.3 1017.3 0.0
08/04:30am 10.7 7.5 5.3 69 2.5 SE 11 11 6 6 1017.3 1017.3 0.0
08/04:00am 10.3 8.4 5.1 70 2.4 ESE 4 7 2 4 1017.2 1017.2 0.0
08/03:30am 10.3 8.0 4.9 69 2.4 SSE 6 7 3 4 1017.3 1017.3 0.0
08/03:00am 10.2 7.7 5.0 70 2.3 SSE 7 9 4 5 1017.2 1017.2 0.0
08/02:30am 10.6 7.7 4.5 66 2.7 SSE 9 11 5 6 1017.2 1017.2 0.0
08/02:00am 11.2 8.6 4.4 63 3.1 SSE 7 9 4 5 1017.5 1017.5 0.0
08/01:30am 11.4 8.8 4.4 62 3.1 S 7 9 4 5 1017.6 1017.6 0.0
08/01:00am 11.5 8.5 4.3 61 3.2 S 9 9 5 5 1017.7 1017.7 0.0
08/12:30am 11.9 8.5 3.9 58 3.6 SSW 11 13 6 7 1017.7 1017.7 0.0
08/12:00am 13.3 10.2 3.7 52 4.3 S 9 13 5 7 1017.8 1017.8 0.0
 
Date/Time
CDT
Temp
°C
App
Temp
°C
Dew
Point
°C
Rel
Hum
%
Delta-T
°C
Wind Press
QNH
hPa
Press
MSL
hPa
Rain since
9am
mm
Dir  Spd
km/h
Gust
km/h
Spd
kts
Gust
kts
07/11:30pm 13.2 10.1 3.8 53 4.2 SSW 9 11 5 6 1017.7 1017.7 0.0
07/11:00pm 13.1 9.2 3.5 52 4.3 S 13 17 7 9 1017.6 1017.6 0.0
07/10:30pm 13.4 7.9 3.8 52 4.3 S 22 32 12 17 1017.5 1017.5 0.0
07/10:00pm 13.9 7.7 4.2 52 4.4 S 26 37 14 20 1017.2 1017.2 0.0
07/09:30pm 14.3 9.4 4.0 50 4.7 S 19 30 10 16 1016.8 1016.8 0.0
07/09:00pm 14.1 7.9 4.1 51 4.6 S 26 35 14 19 1016.3 1016.3 0.0
07/08:30pm 14.5 8.2 3.6 48 4.9 S 26 35 14 19 1015.9 1015.9 0.0
07/08:00pm 15.2 7.9 4.6 49 4.9 S 32 43 17 23 1015.4 1015.4 0.0
07/07:30pm 16.1 10.0 6.5 53 4.7 SSW 28 39 15 21 1014.9 1014.9 0.0
07/07:00pm 17.0 9.7 7.4 53 4.8 SSW 35 48 19 26 1014.5 1014.5 0.0
07/06:30pm 17.2 9.8 8.4 56 4.5 SSW 37 56 20 30 1014.0 1014.0 0.0
07/06:09pm 17.4 10.5 8.8 57 4.4 SSW 35 54 19 29 1013.5 1013.5 0.0
07/06:00pm 17.7 10.5 9.1 57 4.5 SW 37 50 20 27 1013.3 1013.3 0.0
07/05:30pm 18.4 11.2 9.2 55 4.8 SSW 37 54 20 29 1013.0 1013.0 0.0
07/05:00pm 18.5 12.0 10.3 59 4.4 SSW 35 54 19 29 1012.9 1012.9 0.0
07/04:55pm 19.1 12.5 10.1 56 4.8 SSW 35 54 19 29 1013.0 1013.0 0.0
07/04:30pm 18.8 12.1 9.8 56 4.8 SSW 35 48 19 26 1012.7 1012.7 0.0
07/04:00pm 18.0 11.4 9.9 59 4.3 SSW 35 50 19 27 1012.7 1012.7 0.0
07/03:30pm 18.4 11.8 8.7 53 5.0 SW 33 41 18 22 1012.5 1012.5 0.0
07/03:00pm 19.6 13.2 9.2 51 5.5 SW 33 39 18 21 1012.2 1012.2 0.0
07/02:30pm 19.4 12.7 8.1 48 5.8 SW 33 41 18 22 1012.3 1012.3 0.0
07/02:00pm 19.5 13.0 8.8 50 5.6 SW 33 41 18 22 1012.2 1012.2 0.0
07/01:30pm 19.6 13.5 9.8 53 5.2 SW 32 48 17 26 1012.2 1012.2 0.0
07/01:00pm 19.7 13.5 9.3 51 5.5 SW 32 39 17 21 1012.1 1012.1 0.0
07/12:30pm 19.3 13.1 9.5 53 5.2 SW 32 41 17 22 1011.9 1011.9 0.0
07/12:00pm 18.6 12.1 8.0 50 5.4 SW 32 44 17 24 1011.9 1011.9 0.0
07/11:30am 18.2 11.6 7.9 51 5.3 SW 32 43 17 23 1011.9 1011.9 0.0
07/11:00am 17.9 11.6 7.3 50 5.3 SSW 30 37 16 20 1011.8 1011.8 0.0
07/10:30am 18.5 12.3 7.9 50 5.4 SSW 30 39 16 21 1011.6 1011.6 0.0

Other formats

Comma delimited format used in spreadsheet applications
http://www.bom.gov.au/fwo/IDS60801/IDS60801.94672.axf

JavaScript Object Notation format (JSON) in row-major order
http://www.bom.gov.au/fwo/IDS60801/IDS60801.94672.json

Data quality

Most of these data are generated automatically and are frequently updated. Quality checks on data are not normally performed. It is possible for incorrect values to appear. Refer to information at About Latest Weather Observations and please check the disclaimer before using these data.